TimePST,TemperatureF,Dew PointF,Humidity,Sea Level PressureIn,VisibilityMPH,Wind Direction,Wind SpeedMPH,Gust SpeedMPH,PrecipitationIn,Events,Conditions,WindDirDegrees,DateUTC
12:53 AM,48.9,43.0,80,30.08,10.0,WNW,5.8,-,N/A,,Clear,300,2012-02-23 08:53:00
1:53 AM,48.9,43.0,80,30.07,10.0,WNW,4.6,-,N/A,,Clear,300,2012-02-23 09:53:00
2:53 AM,48.9,42.1,77,30.06,10.0,Calm,Calm,-,N/A,,Clear,0,2012-02-23 10:53:00
3:53 AM,46.0,41.0,83,30.05,9.0,Calm,Calm,-,N/A,,Clear,0,2012-02-23 11:53:00
4:13 AM,46.4,42.8,87,30.05,2.5,Calm,Calm,-,N/A,,Haze,0,2012-02-23 12:13:00
4:16 AM,46.4,42.8,87,30.05,1.0,Calm,Calm,-,N/A,,Mist,0,2012-02-23 12:16:00
4:24 AM,46.4,42.8,87,30.05,0.5,Calm,Calm,-,N/A,Fog,Fog,0,2012-02-23 12:24:00
4:32 AM,46.4,42.8,87,30.05,0.2,WSW,4.6,-,N/A,Fog,Fog,240,2012-02-23 12:32:00
4:53 AM,46.9,42.1,83,30.05,0.2,NNW,4.6,-,N/A,,Haze,340,2012-02-23 12:53:00
5:17 AM,46.4,42.8,87,30.05,0.5,Variable,4.6,-,N/A,Fog,Fog,0,2012-02-23 13:17:00
5:35 AM,46.4,42.8,87,30.05,1.8,NNW,4.6,-,N/A,,Mostly Cloudy,330,2012-02-23 13:35:00
5:37 AM,46.4,42.8,87,30.04,3.0,Calm,Calm,-,N/A,,Mostly Cloudy,0,2012-02-23 13:37:00
5:53 AM,46.0,42.1,86,30.04,3.0,Variable,3.5,-,N/A,,Scattered Clouds,0,2012-02-23 13:53:00
5:57 AM,46.4,42.8,87,30.04,1.8,WNW,3.5,-,N/A,,Scattered Clouds,300,2012-02-23 13:57:00
6:00 AM,46.4,42.8,87,30.04,1.0,Variable,3.5,-,N/A,,Mist,0,2012-02-23 14:00:00
6:29 AM,44.6,41.0,87,30.04,2.0,WNW,3.5,-,N/A,,Mostly Cloudy,300,2012-02-23 14:29:00
6:37 AM,44.6,41.0,87,30.04,9.0,Calm,Calm,-,N/A,,Scattered Clouds,0,2012-02-23 14:37:00
6:53 AM,45.0,41.0,86,30.05,10.0,NNW,4.6,-,N/A,,Clear,340,2012-02-23 14:53:00
7:53 AM,48.0,43.0,83,30.06,10.0,NNW,3.5,-,N/A,,Clear,330,2012-02-23 15:53:00
8:53 AM,55.0,46.9,74,30.06,10.0,Calm,Calm,-,N/A,,Clear,0,2012-02-23 16:53:00
9:53 AM,60.1,46.9,62,30.05,10.0,East,3.5,-,N/A,,Clear,90,2012-02-23 17:53:00
10:53 AM,66.0,46.9,50,30.04,10.0,South,6.9,-,N/A,,Clear,170,2012-02-23 18:53:00
11:53 AM,69.1,48.0,47,30.01,10.0,SSW,9.2,-,N/A,,Clear,210,2012-02-23 19:53:00
12:53 PM,70.0,45.0,41,29.98,10.0,South,8.1,-,N/A,,Clear,180,2012-02-23 20:53:00
1:53 PM,69.1,44.1,40,29.95,10.0,South,8.1,-,N/A,,Clear,180,2012-02-23 21:53:00
2:53 PM,73.0,39.0,29,29.93,10.0,SSW,13.8,20.7,N/A,,Clear,200,2012-02-23 22:53:00
3:53 PM,79.0,19.0,11,29.93,10.0,North,6.9,-,N/A,,Clear,360,2012-02-23 23:53:00
4:53 PM,75.9,26.1,16,29.94,10.0,Calm,Calm,-,N/A,,Clear,0,2012-02-24 00:53:00
5:53 PM,73.9,18.0,12,29.95,10.0,Variable,5.8,-,N/A,,Clear,0,2012-02-24 01:53:00
6:53 PM,55.9,46.0,69,29.96,6.0,SSE,5.8,-,N/A,,Haze,160,2012-02-24 02:53:00
7:53 PM,53.1,44.1,71,29.97,8.0,SW,4.6,-,N/A,,Clear,220,2012-02-24 03:53:00
8:53 PM,50.0,41.0,71,29.97,10.0,SSW,3.5,-,N/A,,Clear,210,2012-02-24 04:53:00
9:53 PM,52.0,44.1,74,29.99,7.0,Calm,Calm,-,N/A,,Clear,0,2012-02-24 05:53:00
10:53 PM,48.9,39.9,71,30.00,10.0,Variable,3.5,-,N/A,,Clear,0,2012-02-24 06:53:00
11:53 PM,50.0,37.0,61,30.00,10.0,NW,4.6,-,N/A,,Clear,310,2012-02-24 07:53:00